Observations

78.8 °F / 26.0 °C
ESE at 15 MPH
97%
77.9°F / 25.5 °C
29.79" (1008 mb)
10 mile(s)
mostly cloudy
2019.06.19 1640 UTC

Observations

Surface


Raw METARs

2019/06/19 16:40
PKWA 191640Z AUTO 11013KT 10SM BKN110 26/26 A2979 RMK AO2 P0005 T02600255

Translated METAR

Kwajalein, Bucholz AAF, Kwajalein KMR ATOL Airport, Marshall Islands (PKWA) 08-43N 167-44E 2M
Jun 19, 2019 - 12:40 PM EDT / 2019.06.19 1640 UTC
Wind: from the ESE (110 degrees) at 15 MPH (13 KT):0
Visibility: 10 mile(s):0
Sky conditions: mostly cloudy
Precipitation last hour: 0.05 inches
Temperature: 78.8 F (26.0 C)
Dew Point: 77.9 F (25.5 C)
Relative Humidity: 97%
Pressure (altimeter): 29.79 in. Hg (1008 hPa)
ob: PKWA 191640Z AUTO 11013KT 10SM BKN110 26/26 A2979 RMK AO2 P0005 T02600255
cycle: 16



Upper Air


Latest Skew-T

Skew T Diagram

Latest Data File